sensor_id;sensor_type;location;lat;lon;timestamp;pressure;altitude;pressure_sealevel;temperature;humidity
51687;BME280;37774;52.192;4.584;2022-09-09T00:00:54;98476.59;;;14.68;100.00
51687;BME280;37774;52.192;4.584;2022-09-09T00:03:25;98462.88;;;14.50;100.00
51687;BME280;37774;52.192;4.584;2022-09-09T00:05:59;98427.63;;;14.28;100.00
51687;BME280;37774;52.192;4.584;2022-09-09T00:08:36;98475.03;;;14.22;100.00
51687;BME280;37774;52.192;4.584;2022-09-09T00:11:12;98520.75;;;14.43;100.00
51687;BME280;37774;52.192;4.584;2022-09-09T00:13:41;98514.97;;;14.53;100.00
51687;BME280;37774;52.192;4.584;2022-09-09T00:16:15;98482.03;;;14.50;100.00
51687;BME280;37774;52.192;4.584;2022-09-09T00:18:52;98477.19;;;14.44;100.00
51687;BME280;37774;52.192;4.584;2022-09-09T00:21:30;98349.53;;;13.36;100.00
51687;BME280;37774;52.192;4.584;2022-09-09T00:24:00;98404.31;;;14.25;100.00
51687;BME280;37774;52.192;4.584;2022-09-09T00:26:35;98400.28;;;14.48;100.00
51687;BME280;37774;52.192;4.584;2022-09-09T00:29:12;98323.78;;;13.90;100.00
51687;BME280;37774;52.192;4.584;2022-09-09T00:31:41;98403.53;;;14.37;100.00
51687;BME280;37774;52.192;4.584;2022-09-09T00:34:12;98396.56;;;14.38;100.00
51687;BME280;37774;52.192;4.584;2022-09-09T00:36:42;98389.97;;;14.17;100.00
51687;BME280;37774;52.192;4.584;2022-09-09T00:39:16;98174.66;;;12.80;100.00
51687;BME280;37774;52.192;4.584;2022-09-09T00:41:52;98426.78;;;14.27;100.00
51687;BME280;37774;52.192;4.584;2022-09-09T00:44:30;98442.25;;;14.30;100.00
51687;BME280;37774;52.192;4.584;2022-09-09T00:47:09;98438.81;;;14.30;100.00
51687;BME280;37774;52.192;4.584;2022-09-09T00:49:45;98440.41;;;14.18;100.00
51687;BME280;37774;52.192;4.584;2022-09-09T00:52:25;98488.09;;;14.22;100.00
51687;BME280;37774;52.192;4.584;2022-09-09T00:55:02;98463.06;;;13.88;100.00
51687;BME280;37774;52.192;4.584;2022-09-09T00:57:31;98534.34;;;14.20;100.00
51687;BME280;37774;52.192;4.584;2022-09-09T01:00:20;98516.81;;;13.77;100.00
51687;BME280;37774;52.192;4.584;2022-09-09T01:03:07;98594.59;;;14.16;100.00
51687;BME280;37774;52.192;4.584;2022-09-09T01:05:43;98618.13;;;14.16;100.00
51687;BME280;37774;52.192;4.584;2022-09-09T01:08:26;98640.13;;;14.12;100.00
51687;BME280;37774;52.192;4.584;2022-09-09T01:10:59;98683.84;;;14.09;100.00
51687;BME280;37774;52.192;4.584;2022-09-09T01:13:29;98701.19;;;14.10;100.00
51687;BME280;37774;52.192;4.584;2022-09-09T01:15:57;98740.53;;;14.07;100.00
51687;BME280;37774;52.192;4.584;2022-09-09T01:18:28;98763.53;;;14.16;100.00
51687;BME280;37774;52.192;4.584;2022-09-09T01:21:04;98789.06;;;13.95;100.00
51687;BME280;37774;52.192;4.584;2022-09-09T01:23:57;98837.91;;;14.09;100.00
51687;BME280;37774;52.192;4.584;2022-09-09T01:26:34;98884.00;;;14.10;100.00
51687;BME280;37774;52.192;4.584;2022-09-09T01:29:01;98807.41;;;12.73;100.00
51687;BME280;37774;52.192;4.584;2022-09-09T01:31:30;98988.63;;;14.07;100.00
51687;BME280;37774;52.192;4.584;2022-09-09T01:33:59;99033.03;;;14.07;100.00
51687;BME280;37774;52.192;4.584;2022-09-09T01:36:29;99077.75;;;14.00;100.00
51687;BME280;37774;52.192;4.584;2022-09-09T01:39:01;99065.13;;;13.73;100.00
51687;BME280;37774;52.192;4.584;2022-09-09T01:41:28;99146.41;;;14.02;100.00
51687;BME280;37774;52.192;4.584;2022-09-09T01:43:56;99195.88;;;14.06;100.00
51687;BME280;37774;52.192;4.584;2022-09-09T01:46:23;99230.75;;;14.05;100.00
51687;BME280;37774;52.192;4.584;2022-09-09T01:48:52;99201.03;;;13.70;100.00
51687;BME280;37774;52.192;4.584;2022-09-09T01:51:19;99283.00;;;14.05;100.00
51687;BME280;37774;52.192;4.584;2022-09-09T01:53:46;99236.34;;;13.39;100.00
51687;BME280;37774;52.192;4.584;2022-09-09T01:56:28;99274.03;;;13.53;100.00
51687;BME280;37774;52.192;4.584;2022-09-09T01:59:10;99351.56;;;13.70;100.00
51687;BME280;37774;52.192;4.584;2022-09-09T02:01:51;99388.63;;;13.78;100.00
51687;BME280;37774;52.192;4.584;2022-09-09T02:04:31;99417.25;;;13.81;100.00
51687;BME280;37774;52.192;4.584;2022-09-09T02:07:04;99437.78;;;13.89;100.00
51687;BME280;37774;52.192;4.584;2022-09-09T02:09:33;99448.44;;;13.84;100.00
51687;BME280;37774;52.192;4.584;2022-09-09T02:12:08;99471.38;;;13.76;100.00
51687;BME280;37774;52.192;4.584;2022-09-09T02:14:42;99505.22;;;13.79;100.00
51687;BME280;37774;52.192;4.584;2022-09-09T02:17:16;99511.66;;;13.50;100.00
51687;BME280;37774;52.192;4.584;2022-09-09T02:19:47;99378.34;;;12.68;100.00
51687;BME280;37774;52.192;4.584;2022-09-09T02:22:17;99563.47;;;13.59;100.00
51687;BME280;37774;52.192;4.584;2022-09-09T02:24:47;99602.66;;;13.35;100.00
51687;BME280;37774;52.192;4.584;2022-09-09T02:27:14;99642.81;;;13.55;100.00
51687;BME280;37774;52.192;4.584;2022-09-09T02:29:43;99689.09;;;13.50;100.00
51687;BME280;37774;52.192;4.584;2022-09-09T02:32:14;99717.94;;;13.47;100.00
51687;BME280;37774;52.192;4.584;2022-09-09T02:34:44;99759.56;;;13.50;100.00
51687;BME280;37774;52.192;4.584;2022-09-09T02:37:12;99727.75;;;13.14;100.00
51687;BME280;37774;52.192;4.584;2022-09-09T02:39:39;99770.78;;;13.03;100.00
51687;BME280;37774;52.192;4.584;2022-09-09T02:42:06;99804.72;;;13.26;100.00
51687;BME280;37774;52.192;4.584;2022-09-09T02:44:33;99832.81;;;13.45;100.00
51687;BME280;37774;52.192;4.584;2022-09-09T02:47:16;99813.72;;;13.18;100.00
51687;BME280;37774;52.192;4.584;2022-09-09T02:49:56;99803.72;;;13.05;100.00
51687;BME280;37774;52.192;4.584;2022-09-09T02:52:34;99892.78;;;13.20;100.00
51687;BME280;37774;52.192;4.584;2022-09-09T02:55:11;99856.53;;;13.12;100.00
51687;BME280;37774;52.192;4.584;2022-09-09T02:57:39;99932.06;;;13.42;100.00
51687;BME280;37774;52.192;4.584;2022-09-09T03:00:09;99933.09;;;13.09;100.00
51687;BME280;37774;52.192;4.584;2022-09-09T03:02:38;99977.13;;;13.47;100.00
51687;BME280;37774;52.192;4.584;2022-09-09T03:05:06;99978.72;;;13.24;100.00
51687;BME280;37774;52.192;4.584;2022-09-09T03:07:33;100028.81;;;13.36;100.00
51687;BME280;37774;52.192;4.584;2022-09-09T03:10:00;100032.09;;;13.14;100.00
51687;BME280;37774;52.192;4.584;2022-09-09T03:12:26;100069.63;;;13.38;100.00
51687;BME280;37774;52.192;4.584;2022-09-09T03:14:53;100094.91;;;13.36;100.00
51687;BME280;37774;52.192;4.584;2022-09-09T03:17:20;100021.28;;;12.68;100.00
51687;BME280;37774;52.192;4.584;2022-09-09T03:19:48;99811.13;;;11.15;100.00
51687;BME280;37774;52.192;4.584;2022-09-09T03:22:17;100178.84;;;13.21;100.00
51687;BME280;37774;52.192;4.584;2022-09-09T03:24:44;100196.63;;;13.06;100.00
51687;BME280;37774;52.192;4.584;2022-09-09T03:27:12;100215.06;;;13.00;100.00
51687;BME280;37774;52.192;4.584;2022-09-09T03:29:39;100300.16;;;13.37;100.00
51687;BME280;37774;52.192;4.584;2022-09-09T03:32:06;100338.31;;;13.08;100.00
51687;BME280;37774;52.192;4.584;2022-09-09T03:34:35;100408.66;;;13.11;100.00
51687;BME280;37774;52.192;4.584;2022-09-09T03:37:03;100433.84;;;13.12;100.00
51687;BME280;37774;52.192;4.584;2022-09-09T03:39:30;100478.69;;;13.28;100.00
51687;BME280;37774;52.192;4.584;2022-09-09T03:41:57;100536.84;;;13.35;100.00
51687;BME280;37774;52.192;4.584;2022-09-09T03:44:23;100508.47;;;12.82;100.00
51687;BME280;37774;52.192;4.584;2022-09-09T03:46:50;100596.69;;;13.04;100.00
51687;BME280;37774;52.192;4.584;2022-09-09T03:49:17;100586.56;;;12.88;100.00
51687;BME280;37774;52.192;4.584;2022-09-09T03:51:45;100705.88;;;13.21;100.00
51687;BME280;37774;52.192;4.584;2022-09-09T03:54:13;100741.81;;;13.08;100.00
51687;BME280;37774;52.192;4.584;2022-09-09T03:56:40;100697.53;;;12.56;100.00
51687;BME280;37774;52.192;4.584;2022-09-09T03:59:07;100823.81;;;12.93;100.00
51687;BME280;37774;52.192;4.584;2022-09-09T04:01:34;100945.84;;;13.27;100.00
51687;BME280;37774;52.192;4.584;2022-09-09T04:04:01;100889.50;;;12.62;100.00
51687;BME280;37774;52.192;4.584;2022-09-09T04:06:28;101053.75;;;13.26;100.00
51687;BME280;37774;52.192;4.584;2022-09-09T04:08:55;101110.19;;;13.32;100.00
51687;BME280;37774;52.192;4.584;2022-09-09T04:11:23;101187.63;;;13.31;100.00
51687;BME280;37774;52.192;4.584;2022-09-09T04:13:50;101244.22;;;13.29;100.00
51687;BME280;37774;52.192;4.584;2022-09-09T04:16:17;101313.09;;;13.14;100.00
51687;BME280;37774;52.192;4.584;2022-09-09T04:18:44;101346.16;;;13.10;100.00
51687;BME280;37774;52.192;4.584;2022-09-09T04:21:11;101423.50;;;13.19;100.00
51687;BME280;37774;52.192;4.584;2022-09-09T04:23:39;101478.28;;;13.21;100.00
51687;BME280;37774;52.192;4.584;2022-09-09T04:26:06;101518.47;;;12.99;100.00
51687;BME280;37774;52.192;4.584;2022-09-09T04:28:35;101564.47;;;13.13;100.00
51687;BME280;37774;52.192;4.584;2022-09-09T04:31:06;101542.88;;;12.91;100.00
51687;BME280;37774;52.192;4.584;2022-09-09T04:33:34;101583.72;;;12.93;100.00
51687;BME280;37774;52.192;4.584;2022-09-09T04:36:02;101526.56;;;12.50;100.00
51687;BME280;37774;52.192;4.584;2022-09-09T04:38:29;101713.22;;;13.11;100.00
51687;BME280;37774;52.192;4.584;2022-09-09T04:40:56;101761.94;;;13.06;100.00
51687;BME280;37774;52.192;4.584;2022-09-09T04:43:23;101799.38;;;13.04;100.00
51687;BME280;37774;52.192;4.584;2022-09-09T04:45:52;101827.22;;;12.89;100.00
51687;BME280;37774;52.192;4.584;2022-09-09T04:48:19;101919.38;;;13.07;100.00
51687;BME280;37774;52.192;4.584;2022-09-09T04:50:54;102080.31;;;13.09;100.00
51687;BME280;37774;52.192;4.584;2022-09-09T04:53:21;102151.63;;;13.08;100.00
51687;BME280;37774;52.192;4.584;2022-09-09T04:55:48;102243.78;;;12.90;100.00
51687;BME280;37774;52.192;4.584;2022-09-09T04:58:15;102294.31;;;13.09;100.00
51687;BME280;37774;52.192;4.584;2022-09-09T05:00:41;102323.00;;;13.05;100.00
51687;BME280;37774;52.192;4.584;2022-09-09T05:03:09;102349.97;;;13.08;100.00
51687;BME280;37774;52.192;4.584;2022-09-09T05:05:38;102385.63;;;13.05;100.00
51687;BME280;37774;52.192;4.584;2022-09-09T05:08:06;102402.09;;;12.96;100.00
51687;BME280;37774;52.192;4.584;2022-09-09T05:10:36;102441.28;;;13.05;100.00
51687;BME280;37774;52.192;4.584;2022-09-09T05:13:03;102214.97;;;11.63;100.00
51687;BME280;37774;52.192;4.584;2022-09-09T05:15:29;102475.16;;;12.99;100.00
51687;BME280;37774;52.192;4.584;2022-09-09T05:17:57;102484.75;;;12.98;100.00
51687;BME280;37774;52.192;4.584;2022-09-09T05:20:26;102193.81;;;11.34;100.00
51687;BME280;37774;52.192;4.584;2022-09-09T05:22:53;102591.72;;;12.97;100.00
51687;BME280;37774;52.192;4.584;2022-09-09T05:25:19;102588.03;;;12.79;100.00
51687;BME280;37774;52.192;4.584;2022-09-09T05:27:47;102573.59;;;12.34;100.00
51687;BME280;37774;52.192;4.584;2022-09-09T05:30:14;102657.91;;;13.05;100.00
51687;BME280;37774;52.192;4.584;2022-09-09T05:32:42;102683.16;;;13.05;100.00
51687;BME280;37774;52.192;4.584;2022-09-09T05:35:08;102687.19;;;12.78;100.00
51687;BME280;37774;52.192;4.584;2022-09-09T05:37:36;102709.84;;;12.82;100.00
51687;BME280;37774;52.192;4.584;2022-09-09T05:40:04;102662.44;;;12.49;100.00
51687;BME280;37774;52.192;4.584;2022-09-09T05:42:31;102774.53;;;13.09;100.00
51687;BME280;37774;52.192;4.584;2022-09-09T05:44:58;102805.97;;;13.17;100.00
51687;BME280;37774;52.192;4.584;2022-09-09T05:47:25;102822.53;;;13.21;100.00
51687;BME280;37774;52.192;4.584;2022-09-09T05:49:53;102828.59;;;13.18;100.00
51687;BME280;37774;52.192;4.584;2022-09-09T05:52:20;102835.78;;;13.33;100.00
51687;BME280;37774;52.192;4.584;2022-09-09T05:54:49;102625.41;;;12.12;100.00
51687;BME280;37774;52.192;4.584;2022-09-09T05:57:16;102832.31;;;13.34;100.00
51687;BME280;37774;52.192;4.584;2022-09-09T05:59:44;102785.00;;;13.12;100.00
51687;BME280;37774;52.192;4.584;2022-09-09T06:02:11;102883.41;;;13.83;100.00
51687;BME280;37774;52.192;4.584;2022-09-09T06:04:39;102905.25;;;13.88;100.00
51687;BME280;37774;52.192;4.584;2022-09-09T06:07:05;102832.00;;;13.12;100.00
51687;BME280;37774;52.192;4.584;2022-09-09T06:09:32;102832.63;;;13.59;100.00
51687;BME280;37774;52.192;4.584;2022-09-09T06:12:00;102898.59;;;14.16;100.00
51687;BME280;37774;52.192;4.584;2022-09-09T06:14:27;102848.84;;;14.09;100.00
51687;BME280;37774;52.192;4.584;2022-09-09T06:16:54;102854.34;;;14.38;100.00
51687;BME280;37774;52.192;4.584;2022-09-09T06:19:22;102802.91;;;14.39;100.00
51687;BME280;37774;52.192;4.584;2022-09-09T06:21:49;102767.22;;;14.44;100.00
51687;BME280;37774;52.192;4.584;2022-09-09T06:24:16;102731.50;;;14.54;100.00
51687;BME280;37774;52.192;4.584;2022-09-09T06:26:45;102701.00;;;14.54;100.00
51687;BME280;37774;52.192;4.584;2022-09-09T06:29:13;102660.88;;;14.52;100.00
51687;BME280;37774;52.192;4.584;2022-09-09T06:31:40;102588.47;;;14.45;100.00
51687;BME280;37774;52.192;4.584;2022-09-09T06:34:08;102573.75;;;14.73;100.00
51687;BME280;37774;52.192;4.584;2022-09-09T06:36:37;102308.50;;;13.67;100.00
51687;BME280;37774;52.192;4.584;2022-09-09T06:39:04;102483.91;;;14.67;100.00
51687;BME280;37774;52.192;4.584;2022-09-09T06:41:32;102335.66;;;14.35;100.00
51687;BME280;37774;52.192;4.584;2022-09-09T06:43:59;102388.84;;;14.93;100.00
51687;BME280;37774;52.192;4.584;2022-09-09T06:46:29;102370.53;;;14.93;100.00
51687;BME280;37774;52.192;4.584;2022-09-09T06:48:58;102176.19;;;13.90;100.00
51687;BME280;37774;52.192;4.584;2022-09-09T06:51:26;102317.31;;;14.80;100.00
51687;BME280;37774;52.192;4.584;2022-09-09T06:53:55;102286.75;;;14.96;100.00
51687;BME280;37774;52.192;4.584;2022-09-09T06:56:23;102269.28;;;15.09;100.00
51687;BME280;37774;52.192;4.584;2022-09-09T06:58:52;102148.09;;;14.79;100.00
51687;BME280;37774;52.192;4.584;2022-09-09T07:01:21;102104.56;;;14.70;100.00
51687;BME280;37774;52.192;4.584;2022-09-09T07:03:51;102114.81;;;15.12;100.00
51687;BME280;37774;52.192;4.584;2022-09-09T07:06:20;102096.47;;;15.12;100.00
51687;BME280;37774;52.192;4.584;2022-09-09T07:08:50;102066.81;;;15.08;100.00
51687;BME280;37774;52.192;4.584;2022-09-09T07:11:18;102026.53;;;15.26;100.00
51687;BME280;37774;52.192;4.584;2022-09-09T07:13:46;101933.44;;;14.94;100.00
51687;BME280;37774;52.192;4.584;2022-09-09T07:16:14;101890.69;;;14.95;100.00
51687;BME280;37774;52.192;4.584;2022-09-09T07:18:41;101877.28;;;15.25;100.00
51687;BME280;37774;52.192;4.584;2022-09-09T07:21:11;101806.63;;;15.23;100.00
51687;BME280;37774;52.192;4.584;2022-09-09T07:23:38;101588.06;;;14.10;100.00
51687;BME280;37774;52.192;4.584;2022-09-09T07:26:08;101693.88;;;15.36;100.00
51687;BME280;37774;52.192;4.584;2022-09-09T07:28:36;101641.41;;;15.42;100.00
51687;BME280;37774;52.192;4.584;2022-09-09T07:31:04;101539.94;;;14.98;100.00
51687;BME280;37774;52.192;4.584;2022-09-09T07:33:33;101532.09;;;15.53;100.00
51687;BME280;37774;52.192;4.584;2022-09-09T07:36:05;101440.97;;;15.21;100.00
51687;BME280;37774;52.192;4.584;2022-09-09T07:38:39;101459.44;;;15.63;100.00
51687;BME280;37774;52.192;4.584;2022-09-09T07:41:08;101237.78;;;14.68;100.00
51687;BME280;37774;52.192;4.584;2022-09-09T07:43:37;101352.81;;;15.68;100.00
51687;BME280;37774;52.192;4.584;2022-09-09T07:46:04;101302.06;;;15.72;100.00
51687;BME280;37774;52.192;4.584;2022-09-09T07:48:31;101228.78;;;15.69;100.00
51687;BME280;37774;52.192;4.584;2022-09-09T07:51:09;101193.69;;;15.75;100.00
51687;BME280;37774;52.192;4.584;2022-09-09T07:53:39;101171.84;;;15.76;100.00
51687;BME280;37774;52.192;4.584;2022-09-09T07:56:13;101125.63;;;15.73;100.00
51687;BME280;37774;52.192;4.584;2022-09-09T07:58:44;101064.97;;;15.54;100.00
51687;BME280;37774;52.192;4.584;2022-09-09T08:01:13;100985.06;;;15.39;100.00
51687;BME280;37774;52.192;4.584;2022-09-09T08:03:41;100995.72;;;15.65;100.00
51687;BME280;37774;52.192;4.584;2022-09-09T08:06:10;100962.41;;;15.70;100.00
51687;BME280;37774;52.192;4.584;2022-09-09T08:08:39;100910.59;;;15.50;100.00
51687;BME280;37774;52.192;4.584;2022-09-09T08:11:09;100854.34;;;15.63;100.00
51687;BME280;37774;52.192;4.584;2022-09-09T08:13:37;100801.09;;;15.62;100.00
51687;BME280;37774;52.192;4.584;2022-09-09T08:16:10;100740.38;;;15.50;100.00
51687;BME280;37774;52.192;4.584;2022-09-09T08:18:37;100748.28;;;15.76;100.00
51687;BME280;37774;52.192;4.584;2022-09-09T08:21:06;100696.19;;;15.67;100.00
51687;BME280;37774;52.192;4.584;2022-09-09T08:23:34;100655.91;;;15.70;100.00
51687;BME280;37774;52.192;4.584;2022-09-09T08:26:07;100639.16;;;15.75;100.00
51687;BME280;37774;52.192;4.584;2022-09-09T08:28:34;100598.75;;;15.83;100.00
51687;BME280;37774;52.192;4.584;2022-09-09T08:31:11;100570.47;;;15.94;100.00
51687;BME280;37774;52.192;4.584;2022-09-09T08:33:39;100529.00;;;16.05;100.00
51687;BME280;37774;52.192;4.584;2022-09-09T08:36:09;100426.75;;;15.56;100.00
51687;BME280;37774;52.192;4.584;2022-09-09T08:38:37;100428.56;;;15.80;100.00
51687;BME280;37774;52.192;4.584;2022-09-09T08:44:21;100319.47;;;15.78;100.00
51687;BME280;37774;52.192;4.584;2022-09-09T08:46:56;100234.84;;;15.76;100.00
51687;BME280;37774;52.192;4.584;2022-09-09T08:49:45;100042.22;;;14.79;100.00
51687;BME280;37774;52.192;4.584;2022-09-09T08:52:22;100349.09;;;16.04;100.00
51687;BME280;37774;52.192;4.584;2022-09-09T08:54:50;100103.09;;;15.06;100.00
51687;BME280;37774;52.192;4.584;2022-09-09T08:57:22;100230.81;;;15.91;100.00
51687;BME280;37774;52.192;4.584;2022-09-09T08:59:52;100198.53;;;15.89;100.00
51687;BME280;37774;52.192;4.584;2022-09-09T09:02:24;100215.72;;;16.19;100.00
51687;BME280;37774;52.192;4.584;2022-09-09T09:05:00;100186.31;;;16.12;100.00
51687;BME280;37774;52.192;4.584;2022-09-09T09:07:43;100127.88;;;15.88;100.00
51687;BME280;37774;52.192;4.584;2022-09-09T09:10:22;100108.72;;;16.08;100.00
51687;BME280;37774;52.192;4.584;2022-09-09T09:12:57;100074.19;;;15.76;100.00
51687;BME280;37774;52.192;4.584;2022-09-09T09:15:27;99682.53;;;13.85;100.00
51687;BME280;37774;52.192;4.584;2022-09-09T09:17:56;100061.28;;;16.14;100.00
51687;BME280;37774;52.192;4.584;2022-09-09T09:20:27;100037.19;;;16.06;100.00
51687;BME280;37774;52.192;4.584;2022-09-09T09:23:00;100069.59;;;16.03;100.00
51687;BME280;37774;52.192;4.584;2022-09-09T09:25:33;100037.28;;;16.24;100.00
51687;BME280;37774;52.192;4.584;2022-09-09T09:28:07;99878.75;;;15.32;100.00
51687;BME280;37774;52.192;4.584;2022-09-09T09:30:39;99946.75;;;15.75;100.00
51687;BME280;37774;52.192;4.584;2022-09-09T09:33:14;99826.81;;;14.81;100.00
51687;BME280;37774;52.192;4.584;2022-09-09T09:35:44;100074.78;;;15.83;100.00
51687;BME280;37774;52.192;4.584;2022-09-09T09:38:16;99930.22;;;14.90;100.00
51687;BME280;37774;52.192;4.584;2022-09-09T09:40:51;100183.81;;;16.30;100.00
51687;BME280;37774;52.192;4.584;2022-09-09T09:43:25;100259.84;;;16.30;100.00
51687;BME280;37774;52.192;4.584;2022-09-09T09:45:53;100272.53;;;16.18;100.00
51687;BME280;37774;52.192;4.584;2022-09-09T09:48:19;99935.78;;;14.11;100.00
51687;BME280;37774;52.192;4.584;2022-09-09T09:50:48;100327.63;;;16.17;100.00
51687;BME280;37774;52.192;4.584;2022-09-09T09:53:20;100365.56;;;16.53;100.00
51687;BME280;37774;52.192;4.584;2022-09-09T09:55:52;100364.75;;;16.52;100.00
51687;BME280;37774;52.192;4.584;2022-09-09T09:58:20;100394.78;;;16.43;100.00
51687;BME280;37774;52.192;4.584;2022-09-09T10:00:49;100390.44;;;16.20;100.00
51687;BME280;37774;52.192;4.584;2022-09-09T10:03:25;100429.75;;;16.88;100.00
51687;BME280;37774;52.192;4.584;2022-09-09T10:05:52;100444.91;;;17.04;100.00
51687;BME280;37774;52.192;4.584;2022-09-09T10:08:20;100406.28;;;17.07;100.00
51687;BME280;37774;52.192;4.584;2022-09-09T10:11:01;100361.78;;;17.04;100.00
51687;BME280;37774;52.192;4.584;2022-09-09T10:13:36;100316.56;;;16.75;100.00
51687;BME280;37774;52.192;4.584;2022-09-09T10:16:20;100213.31;;;16.35;100.00
51687;BME280;37774;52.192;4.584;2022-09-09T10:18:58;100272.81;;;16.98;100.00
51687;BME280;37774;52.192;4.584;2022-09-09T10:21:44;100262.09;;;17.43;100.00
51687;BME280;37774;52.192;4.584;2022-09-09T10:24:25;100237.06;;;17.34;100.00
51687;BME280;37774;52.192;4.584;2022-09-09T10:27:03;100145.66;;;17.79;100.00
51687;BME280;37774;52.192;4.584;2022-09-09T10:29:47;100154.94;;;18.05;100.00
51687;BME280;37774;52.192;4.584;2022-09-09T10:32:36;100056.31;;;17.96;100.00
51687;BME280;37774;52.192;4.584;2022-09-09T10:35:10;100013.59;;;17.75;100.00
51687;BME280;37774;52.192;4.584;2022-09-09T10:40:34;99954.41;;;17.68;100.00
51687;BME280;37774;52.192;4.584;2022-09-09T10:43:12;100002.44;;;17.35;100.00
51687;BME280;37774;52.192;4.584;2022-09-09T10:45:49;99585.41;;;15.17;100.00
51687;BME280;37774;52.192;4.584;2022-09-09T10:48:43;99952.03;;;16.91;100.00
51687;BME280;37774;52.192;4.584;2022-09-09T10:51:23;99998.94;;;16.99;100.00
51687;BME280;37774;52.192;4.584;2022-09-09T10:54:02;100002.81;;;16.71;100.00
51687;BME280;37774;52.192;4.584;2022-09-09T10:56:31;100045.78;;;16.69;100.00
51687;BME280;37774;52.192;4.584;2022-09-09T10:59:02;100105.34;;;16.67;100.00
51687;BME280;37774;52.192;4.584;2022-09-09T11:01:35;100110.81;;;16.81;100.00
51687;BME280;37774;52.192;4.584;2022-09-09T11:04:10;100137.47;;;16.91;100.00
51687;BME280;37774;52.192;4.584;2022-09-09T11:06:44;100135.72;;;17.30;100.00
51687;BME280;37774;52.192;4.584;2022-09-09T11:09:16;100132.44;;;17.63;100.00
51687;BME280;37774;52.192;4.584;2022-09-09T11:11:50;100082.44;;;17.64;100.00
51687;BME280;37774;52.192;4.584;2022-09-09T11:14:22;99900.94;;;16.62;100.00
51687;BME280;37774;52.192;4.584;2022-09-09T11:16:56;99746.13;;;16.81;100.00
51687;BME280;37774;52.192;4.584;2022-09-09T11:19:30;99917.28;;;18.25;100.00
51687;BME280;37774;52.192;4.584;2022-09-09T11:22:01;99866.94;;;18.80;100.00
51687;BME280;37774;52.192;4.584;2022-09-09T11:24:34;99937.56;;;19.04;100.00
51687;BME280;37774;52.192;4.584;2022-09-09T11:27:10;99716.94;;;18.19;100.00
51687;BME280;37774;52.192;4.584;2022-09-09T11:32:50;99697.75;;;18.92;100.00
51687;BME280;37774;52.192;4.584;2022-09-09T11:35:30;99646.44;;;19.14;100.00
51687;BME280;37774;52.192;4.584;2022-09-09T11:38:18;99514.09;;;18.83;100.00
51687;BME280;37774;52.192;4.584;2022-09-09T11:40:46;99470.28;;;19.24;100.00
51687;BME280;37774;52.192;4.584;2022-09-09T11:43:25;99409.81;;;18.67;100.00
51687;BME280;37774;52.192;4.584;2022-09-09T11:45:55;99296.75;;;18.25;100.00
51687;BME280;37774;52.192;4.584;2022-09-09T11:48:29;99305.66;;;18.23;100.00
51687;BME280;37774;52.192;4.584;2022-09-09T11:51:01;99291.22;;;18.83;100.00
51687;BME280;37774;52.192;4.584;2022-09-09T11:53:30;99252.53;;;19.24;100.00
51687;BME280;37774;52.192;4.584;2022-09-09T11:56:25;99209.03;;;18.93;100.00
51687;BME280;37774;52.192;4.584;2022-09-09T11:58:55;99159.66;;;18.58;100.00
51687;BME280;37774;52.192;4.584;2022-09-09T12:01:34;99128.16;;;18.17;100.00
51687;BME280;37774;52.192;4.584;2022-09-09T12:06:54;99193.97;;;17.74;100.00
51687;BME280;37774;52.192;4.584;2022-09-09T12:09:27;99064.81;;;16.83;100.00
51687;BME280;37774;52.192;4.584;2022-09-09T12:12:06;98987.41;;;15.28;100.00
51687;BME280;37774;52.192;4.584;2022-09-09T12:14:42;99214.88;;;17.04;100.00
51687;BME280;37774;52.192;4.584;2022-09-09T12:17:17;99070.56;;;16.01;100.00
51687;BME280;37774;52.192;4.584;2022-09-09T12:19:46;99336.56;;;17.18;100.00
51687;BME280;37774;52.192;4.584;2022-09-09T12:22:22;99368.09;;;17.32;100.00
51687;BME280;37774;52.192;4.584;2022-09-09T12:24:57;99410.84;;;17.04;100.00
51687;BME280;37774;52.192;4.584;2022-09-09T12:27:34;99409.59;;;17.26;100.00
51687;BME280;37774;52.192;4.584;2022-09-09T12:30:07;99096.56;;;15.58;100.00
51687;BME280;37774;52.192;4.584;2022-09-09T12:32:35;99345.19;;;16.73;100.00
51687;BME280;37774;52.192;4.584;2022-09-09T12:35:07;99421.81;;;16.94;100.00
51687;BME280;37774;52.192;4.584;2022-09-09T12:37:40;99192.06;;;15.34;100.00
51687;BME280;37774;52.192;4.584;2022-09-09T12:40:20;99490.22;;;17.85;100.00
51687;BME280;37774;52.192;4.584;2022-09-09T12:42:47;99501.81;;;17.66;100.00
51687;BME280;37774;52.192;4.584;2022-09-09T12:45:16;99147.16;;;15.42;100.00
51687;BME280;37774;52.192;4.584;2022-09-09T12:47:47;99495.91;;;17.46;100.00
51687;BME280;37774;52.192;4.584;2022-09-09T12:50:19;99387.47;;;16.83;100.00
51687;BME280;37774;52.192;4.584;2022-09-09T12:52:50;99577.53;;;17.74;100.00
51687;BME280;37774;52.192;4.584;2022-09-09T12:55:19;99583.19;;;17.51;100.00
51687;BME280;37774;52.192;4.584;2022-09-09T12:57:48;99507.16;;;17.02;100.00
51687;BME280;37774;52.192;4.584;2022-09-09T13:00:18;99599.78;;;17.52;100.00
51687;BME280;37774;52.192;4.584;2022-09-09T13:02:50;99534.38;;;17.47;100.00
51687;BME280;37774;52.192;4.584;2022-09-09T13:05:21;99581.22;;;18.02;100.00
51687;BME280;37774;52.192;4.584;2022-09-09T13:07:50;99371.50;;;16.40;100.00
51687;BME280;37774;52.192;4.584;2022-09-09T13:10:24;99503.78;;;17.77;100.00
51687;BME280;37774;52.192;4.584;2022-09-09T13:12:52;99321.13;;;16.34;100.00
51687;BME280;37774;52.192;4.584;2022-09-09T13:15:21;99498.66;;;17.90;100.00
51687;BME280;37774;52.192;4.584;2022-09-09T13:17:54;99462.63;;;17.92;100.00